sensor_id;sensor_type;location;lat;lon;timestamp;pressure;altitude;pressure_sealevel;temperature;humidity
71791;BME280;59638;52.126;5.434;2023-05-03T00:01:12;103142.75;;;4.08;94.99
71791;BME280;59638;52.126;5.434;2023-05-03T00:03:39;103145.66;;;3.97;95.51
71791;BME280;59638;52.126;5.434;2023-05-03T00:06:10;103138.88;;;3.90;96.53
71791;BME280;59638;52.126;5.434;2023-05-03T00:08:36;103139.09;;;3.81;96.24
71791;BME280;59638;52.126;5.434;2023-05-03T00:11:03;103132.16;;;3.80;96.59
71791;BME280;59638;52.126;5.434;2023-05-03T00:13:29;103138.31;;;3.77;97.65
71791;BME280;59638;52.126;5.434;2023-05-03T00:15:56;103137.53;;;3.74;97.96
71791;BME280;59638;52.126;5.434;2023-05-03T00:18:22;103131.69;;;3.64;98.49
71791;BME280;59638;52.126;5.434;2023-05-03T00:20:49;103141.41;;;3.58;98.47
71791;BME280;59638;52.126;5.434;2023-05-03T00:23:16;103129.31;;;3.53;98.50
71791;BME280;59638;52.126;5.434;2023-05-03T00:25:42;103140.72;;;3.51;99.27
71791;BME280;59638;52.126;5.434;2023-05-03T00:28:09;103141.56;;;3.51;100.00
71791;BME280;59638;52.126;5.434;2023-05-03T00:30:36;103136.47;;;3.45;99.48
71791;BME280;59638;52.126;5.434;2023-05-03T00:33:02;103137.50;;;3.38;99.84
71791;BME280;59638;52.126;5.434;2023-05-03T00:35:29;103142.84;;;3.34;100.00
71791;BME280;59638;52.126;5.434;2023-05-03T00:37:55;103143.00;;;3.26;100.00
71791;BME280;59638;52.126;5.434;2023-05-03T00:40:21;103139.41;;;3.32;100.00
71791;BME280;59638;52.126;5.434;2023-05-03T00:42:48;103138.56;;;3.31;100.00
71791;BME280;59638;52.126;5.434;2023-05-03T00:45:14;103138.69;;;3.25;100.00
71791;BME280;59638;52.126;5.434;2023-05-03T00:47:41;103141.06;;;3.34;100.00
71791;BME280;59638;52.126;5.434;2023-05-03T00:50:08;103128.78;;;3.39;100.00
71791;BME280;59638;52.126;5.434;2023-05-03T00:52:38;103141.75;;;3.42;99.93
71791;BME280;59638;52.126;5.434;2023-05-03T00:55:05;103142.03;;;3.30;100.00
71791;BME280;59638;52.126;5.434;2023-05-03T00:57:32;103139.63;;;3.21;100.00
71791;BME280;59638;52.126;5.434;2023-05-03T00:59:58;103134.53;;;3.15;100.00
71791;BME280;59638;52.126;5.434;2023-05-03T01:02:26;103143.41;;;3.08;100.00
71791;BME280;59638;52.126;5.434;2023-05-03T01:04:56;103143.22;;;3.15;100.00
71791;BME280;59638;52.126;5.434;2023-05-03T01:07:31;103136.38;;;3.10;100.00
71791;BME280;59638;52.126;5.434;2023-05-03T01:12:50;103130.47;;;3.02;100.00
71791;BME280;59638;52.126;5.434;2023-05-03T01:15:49;103134.13;;;2.94;100.00
71791;BME280;59638;52.126;5.434;2023-05-03T01:18:21;103147.28;;;2.88;100.00
71791;BME280;59638;52.126;5.434;2023-05-03T01:20:49;103142.19;;;2.82;100.00
71791;BME280;59638;52.126;5.434;2023-05-03T01:25:50;103140.19;;;2.95;100.00
71791;BME280;59638;52.126;5.434;2023-05-03T01:28:16;103142.63;;;3.03;100.00
71791;BME280;59638;52.126;5.434;2023-05-03T01:30:43;103135.66;;;3.05;100.00
71791;BME280;59638;52.126;5.434;2023-05-03T01:33:25;103133.88;;;3.07;100.00
71791;BME280;59638;52.126;5.434;2023-05-03T01:36:03;103129.41;;;3.10;100.00
71791;BME280;59638;52.126;5.434;2023-05-03T01:38:35;103133.78;;;3.11;100.00
71791;BME280;59638;52.126;5.434;2023-05-03T01:41:10;103131.09;;;3.14;100.00
71791;BME280;59638;52.126;5.434;2023-05-03T01:43:39;103131.94;;;3.15;100.00
71791;BME280;59638;52.126;5.434;2023-05-03T01:46:06;103132.06;;;3.09;100.00
71791;BME280;59638;52.126;5.434;2023-05-03T01:48:32;103133.13;;;3.00;100.00
71791;BME280;59638;52.126;5.434;2023-05-03T01:50:59;103123.63;;;2.97;100.00
71791;BME280;59638;52.126;5.434;2023-05-03T01:53:25;103135.06;;;2.90;100.00
71791;BME280;59638;52.126;5.434;2023-05-03T01:55:51;103127.28;;;2.89;100.00
71791;BME280;59638;52.126;5.434;2023-05-03T01:58:18;103141.41;;;2.79;100.00
71791;BME280;59638;52.126;5.434;2023-05-03T02:00:44;103134.44;;;2.79;100.00
71791;BME280;59638;52.126;5.434;2023-05-03T02:03:11;103129.22;;;2.79;100.00
71791;BME280;59638;52.126;5.434;2023-05-03T02:05:38;103134.63;;;2.70;100.00
71791;BME280;59638;52.126;5.434;2023-05-03T02:08:04;103140.03;;;2.61;100.00
71791;BME280;59638;52.126;5.434;2023-05-03T02:10:31;103130.41;;;2.63;100.00
71791;BME280;59638;52.126;5.434;2023-05-03T02:12:57;103136.63;;;2.56;100.00
71791;BME280;59638;52.126;5.434;2023-05-03T02:15:24;103126.31;;;2.50;100.00
71791;BME280;59638;52.126;5.434;2023-05-03T02:17:50;103122.97;;;2.44;100.00
71791;BME280;59638;52.126;5.434;2023-05-03T02:20:19;103118.63;;;2.45;100.00
71791;BME280;59638;52.126;5.434;2023-05-03T02:22:46;103122.00;;;2.49;100.00
71791;BME280;59638;52.126;5.434;2023-05-03T02:25:12;103118.66;;;2.42;100.00
71791;BME280;59638;52.126;5.434;2023-05-03T02:27:38;103121.34;;;2.37;100.00
71791;BME280;59638;52.126;5.434;2023-05-03T02:30:06;103118.81;;;2.34;100.00
71791;BME280;59638;52.126;5.434;2023-05-03T02:32:33;103109.28;;;2.33;100.00
71791;BME280;59638;52.126;5.434;2023-05-03T02:34:59;103112.00;;;2.27;100.00
71791;BME280;59638;52.126;5.434;2023-05-03T02:37:26;103106.03;;;2.21;100.00
71791;BME280;59638;52.126;5.434;2023-05-03T02:39:52;103101.75;;;2.16;100.00
71791;BME280;59638;52.126;5.434;2023-05-03T02:42:18;103104.41;;;2.15;100.00
71791;BME280;59638;52.126;5.434;2023-05-03T02:44:45;103095.69;;;2.16;100.00
71791;BME280;59638;52.126;5.434;2023-05-03T02:47:11;103100.00;;;2.18;100.00
71791;BME280;59638;52.126;5.434;2023-05-03T02:49:38;103097.44;;;2.15;100.00
71791;BME280;59638;52.126;5.434;2023-05-03T02:52:04;103094.06;;;2.12;100.00
71791;BME280;59638;52.126;5.434;2023-05-03T02:54:31;103091.53;;;2.07;100.00
71791;BME280;59638;52.126;5.434;2023-05-03T02:56:57;103086.38;;;2.03;100.00
71791;BME280;59638;52.126;5.434;2023-05-03T02:59:23;103089.09;;;1.97;100.00
71791;BME280;59638;52.126;5.434;2023-05-03T03:01:50;103090.00;;;1.96;100.00
71791;BME280;59638;52.126;5.434;2023-05-03T03:04:16;103088.34;;;1.90;100.00
71791;BME280;59638;52.126;5.434;2023-05-03T03:06:43;103091.91;;;1.84;100.00
71791;BME280;59638;52.126;5.434;2023-05-03T03:09:09;103099.84;;;1.78;100.00
71791;BME280;59638;52.126;5.434;2023-05-03T03:11:37;103108.59;;;1.74;100.00
71791;BME280;59638;52.126;5.434;2023-05-03T03:14:04;103102.63;;;1.68;100.00
71791;BME280;59638;52.126;5.434;2023-05-03T03:16:30;103109.59;;;1.64;100.00
71791;BME280;59638;52.126;5.434;2023-05-03T03:18:57;103109.59;;;1.66;100.00
71791;BME280;59638;52.126;5.434;2023-05-03T03:21:23;103112.28;;;1.61;100.00
71791;BME280;59638;52.126;5.434;2023-05-03T03:23:50;103107.09;;;1.58;100.00
71791;BME280;59638;52.126;5.434;2023-05-03T03:26:16;103117.56;;;1.55;100.00
71791;BME280;59638;52.126;5.434;2023-05-03T03:28:43;103116.81;;;1.48;100.00
71791;BME280;59638;52.126;5.434;2023-05-03T03:31:10;103109.94;;;1.44;100.00
71791;BME280;59638;52.126;5.434;2023-05-03T03:33:36;103107.34;;;1.43;100.00
71791;BME280;59638;52.126;5.434;2023-05-03T03:36:03;103103.94;;;1.38;100.00
71791;BME280;59638;52.126;5.434;2023-05-03T03:38:32;103116.22;;;1.29;100.00
71791;BME280;59638;52.126;5.434;2023-05-03T03:40:59;103118.03;;;1.24;100.00
71791;BME280;59638;52.126;5.434;2023-05-03T03:43:25;103111.16;;;1.20;100.00
71791;BME280;59638;52.126;5.434;2023-05-03T03:45:52;103112.91;;;1.18;100.00
71791;BME280;59638;52.126;5.434;2023-05-03T03:48:19;103113.84;;;1.14;100.00
71791;BME280;59638;52.126;5.434;2023-05-03T03:50:46;103121.59;;;1.17;100.00
71791;BME280;59638;52.126;5.434;2023-05-03T03:53:12;103119.78;;;1.22;100.00
71791;BME280;59638;52.126;5.434;2023-05-03T03:55:39;103127.59;;;1.22;100.00
71791;BME280;59638;52.126;5.434;2023-05-03T03:58:05;103135.34;;;1.25;100.00
71791;BME280;59638;52.126;5.434;2023-05-03T04:00:33;103134.47;;;1.28;100.00
71791;BME280;59638;52.126;5.434;2023-05-03T04:02:59;103135.31;;;1.28;100.00
71791;BME280;59638;52.126;5.434;2023-05-03T04:05:26;103140.56;;;1.27;100.00
71791;BME280;59638;52.126;5.434;2023-05-03T04:07:52;103137.97;;;1.27;100.00
71791;BME280;59638;52.126;5.434;2023-05-03T04:10:19;103128.34;;;1.30;100.00
71791;BME280;59638;52.126;5.434;2023-05-03T04:12:45;103126.56;;;1.34;100.00
71791;BME280;59638;52.126;5.434;2023-05-03T04:15:11;103118.75;;;1.35;100.00
71791;BME280;59638;52.126;5.434;2023-05-03T04:17:38;103124.78;;;1.38;100.00
71791;BME280;59638;52.126;5.434;2023-05-03T04:20:05;103125.63;;;1.38;100.00
71791;BME280;59638;52.126;5.434;2023-05-03T04:22:36;103137.72;;;1.42;100.00
71791;BME280;59638;52.126;5.434;2023-05-03T04:25:09;103138.41;;;1.55;100.00
71791;BME280;59638;52.126;5.434;2023-05-03T04:27:36;103136.53;;;1.63;100.00
71791;BME280;59638;52.126;5.434;2023-05-03T04:30:03;103145.13;;;1.68;100.00
71791;BME280;59638;52.126;5.434;2023-05-03T04:32:31;103147.78;;;1.67;100.00
71791;BME280;59638;52.126;5.434;2023-05-03T04:35:03;103161.56;;;1.73;100.00
71791;BME280;59638;52.126;5.434;2023-05-03T04:37:38;103159.81;;;1.74;100.00
71791;BME280;59638;52.126;5.434;2023-05-03T04:40:05;103158.88;;;1.76;100.00
71791;BME280;59638;52.126;5.434;2023-05-03T04:42:34;103170.94;;;1.83;100.00
71791;BME280;59638;52.126;5.434;2023-05-03T04:45:01;103163.97;;;1.85;100.00
71791;BME280;59638;52.126;5.434;2023-05-03T04:47:29;103172.53;;;1.90;100.00
71791;BME280;59638;52.126;5.434;2023-05-03T04:49:55;103170.69;;;1.99;100.00
71791;BME280;59638;52.126;5.434;2023-05-03T04:52:22;103173.19;;;2.03;100.00
71791;BME280;59638;52.126;5.434;2023-05-03T04:54:48;103179.13;;;2.13;100.00
71791;BME280;59638;52.126;5.434;2023-05-03T04:57:15;103169.16;;;2.38;100.00
71791;BME280;59638;52.126;5.434;2023-05-03T04:59:41;103183.53;;;2.59;100.00
71791;BME280;59638;52.126;5.434;2023-05-03T05:02:09;103179.06;;;2.65;100.00
71791;BME280;59638;52.126;5.434;2023-05-03T05:04:35;103176.28;;;2.73;100.00
71791;BME280;59638;52.126;5.434;2023-05-03T05:07:02;103169.06;;;2.87;100.00
71791;BME280;59638;52.126;5.434;2023-05-03T05:09:28;103167.56;;;3.17;100.00
71791;BME280;59638;52.126;5.434;2023-05-03T05:11:56;103176.59;;;3.41;100.00
71791;BME280;59638;52.126;5.434;2023-05-03T05:14:25;103174.88;;;3.40;100.00
71791;BME280;59638;52.126;5.434;2023-05-03T05:16:52;103175.00;;;3.34;100.00
71791;BME280;59638;52.126;5.434;2023-05-03T05:19:18;103180.09;;;3.40;100.00
71791;BME280;59638;52.126;5.434;2023-05-03T05:21:45;103176.09;;;3.63;100.00
71791;BME280;59638;52.126;5.434;2023-05-03T05:24:11;103179.97;;;3.84;100.00
71791;BME280;59638;52.126;5.434;2023-05-03T05:26:38;103177.78;;;4.01;100.00
71791;BME280;59638;52.126;5.434;2023-05-03T05:29:04;103176.53;;;4.16;100.00
71791;BME280;59638;52.126;5.434;2023-05-03T05:31:31;103186.78;;;4.25;99.34
71791;BME280;59638;52.126;5.434;2023-05-03T05:33:58;103186.47;;;4.37;98.24
71791;BME280;59638;52.126;5.434;2023-05-03T05:36:24;103191.13;;;4.58;97.69
71791;BME280;59638;52.126;5.434;2023-05-03T05:38:51;103186.31;;;5.05;96.38
71791;BME280;59638;52.126;5.434;2023-05-03T05:41:17;103177.69;;;5.59;94.88
71791;BME280;59638;52.126;5.434;2023-05-03T05:43:44;103181.97;;;5.90;93.27
71791;BME280;59638;52.126;5.434;2023-05-03T05:46:10;103176.91;;;6.37;92.26
71791;BME280;59638;52.126;5.434;2023-05-03T05:48:38;103176.31;;;7.02;89.17
71791;BME280;59638;52.126;5.434;2023-05-03T05:51:04;103173.44;;;7.08;87.91
71791;BME280;59638;52.126;5.434;2023-05-03T05:53:31;103180.63;;;6.79;88.25
71791;BME280;59638;52.126;5.434;2023-05-03T05:55:57;103177.66;;;7.12;87.06
71791;BME280;59638;52.126;5.434;2023-05-03T05:58:24;103175.63;;;7.42;84.54
71791;BME280;59638;52.126;5.434;2023-05-03T06:00:50;103165.59;;;7.52;85.56
71791;BME280;59638;52.126;5.434;2023-05-03T06:03:17;103174.66;;;7.88;83.33
71791;BME280;59638;52.126;5.434;2023-05-03T06:05:43;103177.44;;;7.84;83.78
71791;BME280;59638;52.126;5.434;2023-05-03T06:08:10;103179.91;;;7.88;83.34
71791;BME280;59638;52.126;5.434;2023-05-03T06:10:37;103180.84;;;8.08;81.08
71791;BME280;59638;52.126;5.434;2023-05-03T06:13:05;103181.31;;;8.79;79.18
71791;BME280;59638;52.126;5.434;2023-05-03T06:15:31;103180.75;;;8.52;80.05
71791;BME280;59638;52.126;5.434;2023-05-03T06:17:57;103183.50;;;8.28;81.43
71791;BME280;59638;52.126;5.434;2023-05-03T06:20:24;103178.91;;;8.13;81.96
71791;BME280;59638;52.126;5.434;2023-05-03T06:22:51;103179.72;;;8.35;81.66
71791;BME280;59638;52.126;5.434;2023-05-03T06:25:17;103186.16;;;8.49;81.88
71791;BME280;59638;52.126;5.434;2023-05-03T06:27:44;103178.13;;;8.72;79.49
71791;BME280;59638;52.126;5.434;2023-05-03T06:30:11;103177.38;;;8.28;80.75
71791;BME280;59638;52.126;5.434;2023-05-03T06:32:38;103172.97;;;8.28;80.19
71791;BME280;59638;52.126;5.434;2023-05-03T06:35:06;103171.53;;;8.62;79.63
71791;BME280;59638;52.126;5.434;2023-05-03T06:37:32;103163.56;;;8.63;79.03
71791;BME280;59638;52.126;5.434;2023-05-03T06:39:59;103159.41;;;8.97;76.93
71791;BME280;59638;52.126;5.434;2023-05-03T06:42:25;103169.53;;;9.25;76.89
71791;BME280;59638;52.126;5.434;2023-05-03T06:44:52;103156.19;;;9.28;75.44
71791;BME280;59638;52.126;5.434;2023-05-03T06:47:19;103156.09;;;9.48;75.69
71791;BME280;59638;52.126;5.434;2023-05-03T06:49:47;103150.16;;;9.62;75.28
71791;BME280;59638;52.126;5.434;2023-05-03T06:52:13;103161.22;;;9.88;73.36
71791;BME280;59638;52.126;5.434;2023-05-03T06:54:40;103158.09;;;10.14;73.06
71791;BME280;59638;52.126;5.434;2023-05-03T06:57:06;103155.31;;;10.85;70.58
71791;BME280;59638;52.126;5.434;2023-05-03T06:59:32;103145.91;;;11.58;68.09
71791;BME280;59638;52.126;5.434;2023-05-03T07:01:59;103142.19;;;12.22;65.58
71791;BME280;59638;52.126;5.434;2023-05-03T07:04:26;103145.00;;;12.19;64.81
71791;BME280;59638;52.126;5.434;2023-05-03T07:06:52;103147.69;;;12.48;64.42
71791;BME280;59638;52.126;5.434;2023-05-03T07:09:22;103145.91;;;13.32;62.05
71791;BME280;59638;52.126;5.434;2023-05-03T07:12:08;103144.84;;;13.89;58.96
71791;BME280;59638;52.126;5.434;2023-05-03T07:14:34;103136.81;;;14.16;58.38
71791;BME280;59638;52.126;5.434;2023-05-03T07:17:00;103133.50;;;14.25;57.30
71791;BME280;59638;52.126;5.434;2023-05-03T07:19:27;103129.25;;;14.23;58.46
71791;BME280;59638;52.126;5.434;2023-05-03T07:21:53;103125.09;;;13.93;57.11
71791;BME280;59638;52.126;5.434;2023-05-03T07:24:20;103130.69;;;14.54;57.63
71791;BME280;59638;52.126;5.434;2023-05-03T07:26:46;103130.78;;;15.02;53.87
71791;BME280;59638;52.126;5.434;2023-05-03T07:29:14;103110.22;;;15.40;54.35
71791;BME280;59638;52.126;5.434;2023-05-03T07:31:40;103116.75;;;16.07;52.99
71791;BME280;59638;52.126;5.434;2023-05-03T07:34:07;103111.56;;;16.05;51.06
71791;BME280;59638;52.126;5.434;2023-05-03T07:36:33;103100.56;;;15.50;51.91
71791;BME280;59638;52.126;5.434;2023-05-03T07:39:00;103105.75;;;14.80;53.18
71791;BME280;59638;52.126;5.434;2023-05-03T07:41:26;103101.44;;;14.28;53.18
71791;BME280;59638;52.126;5.434;2023-05-03T07:43:53;103099.22;;;14.48;53.60
71791;BME280;59638;52.126;5.434;2023-05-03T07:46:20;103089.94;;;15.03;52.49
71791;BME280;59638;52.126;5.434;2023-05-03T07:48:46;103088.66;;;15.32;49.56
71791;BME280;59638;52.126;5.434;2023-05-03T07:51:13;103095.03;;;14.69;51.85
71791;BME280;59638;52.126;5.434;2023-05-03T07:53:39;103087.78;;;15.08;51.70
71791;BME280;59638;52.126;5.434;2023-05-03T07:56:06;103087.44;;;15.36;50.79
71791;BME280;59638;52.126;5.434;2023-05-03T07:58:32;103086.47;;;15.96;48.51
71791;BME280;59638;52.126;5.434;2023-05-03T08:01:06;103090.09;;;15.95;49.78
71791;BME280;59638;52.126;5.434;2023-05-03T08:03:32;103089.16;;;16.30;47.17
71791;BME280;59638;52.126;5.434;2023-05-03T08:05:59;103091.09;;;16.50;48.40
71791;BME280;59638;52.126;5.434;2023-05-03T08:08:26;103075.84;;;16.75;47.10
71791;BME280;59638;52.126;5.434;2023-05-03T08:10:52;103074.38;;;16.48;45.00
71791;BME280;59638;52.126;5.434;2023-05-03T08:13:19;103078.22;;;17.11;46.88
71791;BME280;59638;52.126;5.434;2023-05-03T08:15:48;103076.44;;;17.86;44.63
71791;BME280;59638;52.126;5.434;2023-05-03T08:18:15;103078.81;;;17.89;44.00
71791;BME280;59638;52.126;5.434;2023-05-03T08:20:42;103076.28;;;17.02;43.01
71791;BME280;59638;52.126;5.434;2023-05-03T08:23:09;103072.81;;;17.23;45.13
71791;BME280;59638;52.126;5.434;2023-05-03T08:25:36;103072.31;;;18.03;41.98
71791;BME280;59638;52.126;5.434;2023-05-03T08:28:02;103063.41;;;17.72;44.03
71791;BME280;59638;52.126;5.434;2023-05-03T08:30:29;103058.03;;;19.04;38.86
71791;BME280;59638;52.126;5.434;2023-05-03T08:32:56;103050.09;;;18.33;41.09
71791;BME280;59638;52.126;5.434;2023-05-03T08:35:23;103049.09;;;18.34;40.85
71791;BME280;59638;52.126;5.434;2023-05-03T08:37:49;103052.03;;;16.94;43.03
71791;BME280;59638;52.126;5.434;2023-05-03T08:40:15;103058.03;;;16.30;44.82
71791;BME280;59638;52.126;5.434;2023-05-03T08:42:44;103054.88;;;17.25;43.00
71791;BME280;59638;52.126;5.434;2023-05-03T08:45:13;103047.19;;;17.84;41.40
71791;BME280;59638;52.126;5.434;2023-05-03T08:47:42;103062.63;;;17.49;43.00
71791;BME280;59638;52.126;5.434;2023-05-03T08:50:12;103070.78;;;18.71;40.34
71791;BME280;59638;52.126;5.434;2023-05-03T08:52:40;103073.81;;;18.16;41.16
71791;BME280;59638;52.126;5.434;2023-05-03T08:55:08;103069.16;;;18.49;39.59
71791;BME280;59638;52.126;5.434;2023-05-03T08:57:35;103068.97;;;18.41;41.64
71791;BME280;59638;52.126;5.434;2023-05-03T09:00:03;103070.16;;;19.17;39.20
71791;BME280;59638;52.126;5.434;2023-05-03T09:02:31;103070.94;;;18.79;39.34
71791;BME280;59638;52.126;5.434;2023-05-03T09:08:02;103072.16;;;19.35;40.15
71791;BME280;59638;52.126;5.434;2023-05-03T09:10:30;103080.56;;;19.98;38.36
71791;BME280;59638;52.126;5.434;2023-05-03T09:13:01;103078.63;;;20.27;37.14
71791;BME280;59638;52.126;5.434;2023-05-03T09:15:28;103084.78;;;18.94;38.92
71791;BME280;59638;52.126;5.434;2023-05-03T09:20:37;103067.00;;;18.73;38.64
71791;BME280;59638;52.126;5.434;2023-05-03T09:23:08;103077.22;;;17.45;41.13
71791;BME280;59638;52.126;5.434;2023-05-03T09:25:49;103084.13;;;17.68;41.30
71791;BME280;59638;52.126;5.434;2023-05-03T09:28:17;103083.50;;;18.79;39.14
71791;BME280;59638;52.126;5.434;2023-05-03T09:30:46;103082.94;;;18.54;39.24
71791;BME280;59638;52.126;5.434;2023-05-03T09:33:13;103069.91;;;19.69;39.56
71791;BME280;59638;52.126;5.434;2023-05-03T09:35:59;103078.19;;;19.95;36.47
71791;BME280;59638;52.126;5.434;2023-05-03T09:38:28;103081.44;;;19.50;38.46
71791;BME280;59638;52.126;5.434;2023-05-03T09:40:55;103091.19;;;19.61;37.37
71791;BME280;59638;52.126;5.434;2023-05-03T09:43:21;103089.16;;;20.38;37.05
71791;BME280;59638;52.126;5.434;2023-05-03T09:45:48;103083.66;;;20.50;36.36
71791;BME280;59638;52.126;5.434;2023-05-03T09:48:15;103085.19;;;20.43;36.00
71791;BME280;59638;52.126;5.434;2023-05-03T09:50:42;103081.13;;;19.92;36.42
71791;BME280;59638;52.126;5.434;2023-05-03T09:53:09;103082.56;;;19.67;37.84
71791;BME280;59638;52.126;5.434;2023-05-03T09:55:39;103078.88;;;19.00;37.48
71791;BME280;59638;52.126;5.434;2023-05-03T09:58:06;103074.63;;;18.78;38.71
71791;BME280;59638;52.126;5.434;2023-05-03T10:03:06;103077.88;;;20.45;37.13
71791;BME280;59638;52.126;5.434;2023-05-03T10:05:39;103073.88;;;20.21;36.33
71791;BME280;59638;52.126;5.434;2023-05-03T10:08:09;103067.78;;;20.56;36.88
71791;BME280;59638;52.126;5.434;2023-05-03T10:10:39;103053.09;;;20.78;36.41
71791;BME280;59638;52.126;5.434;2023-05-03T10:13:09;103049.44;;;20.79;35.16
71791;BME280;59638;52.126;5.434;2023-05-03T10:15:38;103063.97;;;20.59;34.26
71791;BME280;59638;52.126;5.434;2023-05-03T10:18:09;103064.91;;;20.30;35.29
71791;BME280;59638;52.126;5.434;2023-05-03T10:20:49;103065.09;;;19.82;36.80
71791;BME280;59638;52.126;5.434;2023-05-03T10:23:19;103060.03;;;20.16;36.42
71791;BME280;59638;52.126;5.434;2023-05-03T10:28:32;103038.22;;;20.66;35.28
71791;BME280;59638;52.126;5.434;2023-05-03T10:30:58;103035.91;;;20.16;34.18
71791;BME280;59638;52.126;5.434;2023-05-03T10:33:31;103032.97;;;20.37;36.28
71791;BME280;59638;52.126;5.434;2023-05-03T10:36:05;103042.50;;;19.85;36.22
71791;BME280;59638;52.126;5.434;2023-05-03T10:38:32;103038.94;;;19.94;37.64
71791;BME280;59638;52.126;5.434;2023-05-03T10:40:59;103035.31;;;20.22;35.44
71791;BME280;59638;52.126;5.434;2023-05-03T10:45:56;103030.81;;;20.13;35.66
71791;BME280;59638;52.126;5.434;2023-05-03T10:48:22;103038.31;;;19.34;36.74
71791;BME280;59638;52.126;5.434;2023-05-03T10:50:49;103041.66;;;19.84;35.22
71791;BME280;59638;52.126;5.434;2023-05-03T10:53:42;103033.19;;;20.53;37.72
71791;BME280;59638;52.126;5.434;2023-05-03T10:56:12;103037.94;;;21.05;35.27
71791;BME280;59638;52.126;5.434;2023-05-03T10:58:48;103025.78;;;20.65;34.90
71791;BME280;59638;52.126;5.434;2023-05-03T11:01:17;103037.75;;;19.69;37.01
71791;BME280;59638;52.126;5.434;2023-05-03T11:03:48;103037.47;;;19.62;36.77
71791;BME280;59638;52.126;5.434;2023-05-03T11:08:58;103020.81;;;20.43;33.62
71791;BME280;59638;52.126;5.434;2023-05-03T11:11:24;103020.28;;;19.36;34.78
71791;BME280;59638;52.126;5.434;2023-05-03T11:13:52;103004.50;;;19.13;36.38
71791;BME280;59638;52.126;5.434;2023-05-03T11:16:18;103003.66;;;19.22;37.73
71791;BME280;59638;52.126;5.434;2023-05-03T11:18:46;103000.81;;;19.34;35.87
71791;BME280;59638;52.126;5.434;2023-05-03T11:21:14;103000.84;;;18.76;37.59
71791;BME280;59638;52.126;5.434;2023-05-03T11:23:44;102991.47;;;18.60;37.74
71791;BME280;59638;52.126;5.434;2023-05-03T11:26:10;103000.81;;;17.95;37.12
71791;BME280;59638;52.126;5.434;2023-05-03T11:28:38;102991.47;;;18.10;37.87
71791;BME280;59638;52.126;5.434;2023-05-03T11:31:05;102979.44;;;18.76;37.75
71791;BME280;59638;52.126;5.434;2023-05-03T11:33:32;102973.78;;;18.98;38.88
71791;BME280;59638;52.126;5.434;2023-05-03T11:36:00;102983.53;;;18.30;37.92
71791;BME280;59638;52.126;5.434;2023-05-03T11:38:32;102988.56;;;18.23;38.66
71791;BME280;59638;52.126;5.434;2023-05-03T11:40:59;102988.34;;;18.55;38.02
71791;BME280;59638;52.126;5.434;2023-05-03T11:43:26;102977.91;;;18.02;37.25
71791;BME280;59638;52.126;5.434;2023-05-03T11:45:56;102981.94;;;18.27;38.66
71791;BME280;59638;52.126;5.434;2023-05-03T11:48:24;102974.81;;;17.97;38.06
71791;BME280;59638;52.126;5.434;2023-05-03T11:50:53;102979.75;;;17.50;39.28
71791;BME280;59638;52.126;5.434;2023-05-03T11:53:25;102967.66;;;17.56;39.67
71791;BME280;59638;52.126;5.434;2023-05-03T11:55:52;102976.72;;;17.64;39.47
71791;BME280;59638;52.126;5.434;2023-05-03T11:58:24;102964.34;;;17.43;39.06
71791;BME280;59638;52.126;5.434;2023-05-03T12:00:55;102967.34;;;17.07;41.15
71791;BME280;59638;52.126;5.434;2023-05-03T12:03:26;102965.38;;;17.09;42.57
71791;BME280;59638;52.126;5.434;2023-05-03T12:05:58;102961.09;;;16.97;42.59
71791;BME280;59638;52.126;5.434;2023-05-03T12:08:29;102957.63;;;16.85;41.36
71791;BME280;59638;52.126;5.434;2023-05-03T12:10:59;102956.69;;;16.64;39.51
71791;BME280;59638;52.126;5.434;2023-05-03T12:13:33;102952.91;;;16.12;42.51
71791;BME280;59638;52.126;5.434;2023-05-03T12:16:07;102946.97;;;16.31;42.35
71791;BME280;59638;52.126;5.434;2023-05-03T12:18:57;102941.41;;;16.66;40.98
71791;BME280;59638;52.126;5.434;2023-05-03T12:21:46;102926.38;;;16.22;43.26
71791;BME280;59638;52.126;5.434;2023-05-03T12:24:33;102929.00;;;16.44;42.16
71791;BME280;59638;52.126;5.434;2023-05-03T12:27:00;102931.97;;;16.19;42.67
71791;BME280;59638;52.126;5.434;2023-05-03T12:29:28;102922.06;;;15.87;44.07
71791;BME280;59638;52.126;5.434;2023-05-03T12:32:00;102921.56;;;16.04;42.83
71791;BME280;59638;52.126;5.434;2023-05-03T12:34:29;102927.84;;;15.81;43.28
71791;BME280;59638;52.126;5.434;2023-05-03T12:37:01;102922.50;;;16.03;43.74
71791;BME280;59638;52.126;5.434;2023-05-03T12:39:30;102921.53;;;16.16;42.67
71791;BME280;59638;52.126;5.434;2023-05-03T12:41:58;102893.81;;;16.50;43.05
71791;BME280;59638;52.126;5.434;2023-05-03T12:44:27;102906.91;;;16.53;42.63
71791;BME280;59638;52.126;5.434;2023-05-03T12:46:54;102898.25;;;16.29;41.95
71791;BME280;59638;52.126;5.434;2023-05-03T12:49:23;102895.63;;;16.18;41.71
71791;BME280;59638;52.126;5.434;2023-05-03T12:51:50;102896.50;;;16.07;43.05
71791;BME280;59638;52.126;5.434;2023-05-03T12:54:36;102892.63;;;15.89;41.60
71791;BME280;59638;52.126;5.434;2023-05-03T12:57:07;102887.66;;;15.84;43.07
71791;BME280;59638;52.126;5.434;2023-05-03T12:59:40;102887.78;;;15.83;43.13
71791;BME280;59638;52.126;5.434;2023-05-03T13:02:09;102887.66;;;15.84;43.67
71791;BME280;59638;52.126;5.434;2023-05-03T13:04:39;102884.28;;;15.93;42.12
71791;BME280;59638;52.126;5.434;2023-05-03T13:07:09;102882.81;;;15.89;44.08
71791;BME280;59638;52.126;5.434;2023-05-03T13:09:40;102873.56;;;16.16;43.38
71791;BME280;59638;52.126;5.434;2023-05-03T13:12:26;102869.53;;;15.67;45.12
71791;BME280;59638;52.126;5.434;2023-05-03T13:14:53;102863.47;;;15.87;45.02
71791;BME280;59638;52.126;5.434;2023-05-03T13:17:20;102862.38;;;15.67;43.12
71791;BME280;59638;52.126;5.434;2023-05-03T13:19:48;102858.38;;;15.39;45.14